Station Historical Data
Daily Summary for March 21, 2012 Units:  Both    English   Metric
« Previous Day
Next Day »
Daily Weekly Monthly Yearly Custom
  High: Low: Average:
Temperature: 76.7 °F /  24.8 °C 63.6 °F /  17.6 °C 70.8 °F /  21.6 °C
Dew Point: 63.6 °F /  17.6 °C 54.3 °F /  12.4 °C 58.5 °F /  14.7 °C
Humidity: 79% 56% 65%
Wind Speed: 18.0mph /  29km/h - 7.8mph /  12.6km/h
Wind Gust: 24.0mph /  38.6km/h - -
Wind- - ESE
Pressure: 30.05 in /  1017.5 hPa 29.96 in /  1014.4 hPa -
Precipitation: 0.00 in /  0 mm    
Historical Graphs
 
 
Tabular Data for March 21, 2012
Time Temperature Dew Point Pressure Wind Wind Speed Wind Gust Humidity Rainfall Rate (Hourly) Conditions
00:00 71.3 °F /  21.8 °C 55.3 °F /  12.9 °C 29.99in /  1015.5hPa East 5.0mph /  8km/h 8.0mph /  12.9km/h 57% 0.00in /  0mm
00:01 71.2 °F /  21.8 °C 55.2 °F /  12.9 °C 29.99in /  1015.5hPa ESE 7.0mph /  11.3km/h 9.0mph /  14.5km/h 57% 0.00in /  0mm
00:06 71.2 °F /  21.8 °C 55.2 °F /  12.9 °C 29.99in /  1015.5hPa ESE 8.0mph /  12.9km/h 9.0mph /  14.5km/h 57% 0.00in /  0mm
00:11 71.3 °F /  21.8 °C 55.3 °F /  12.9 °C 29.99in /  1015.5hPa SE 6.0mph /  9.7km/h 10.0mph /  16.1km/h 57% 0.00in /  0mm
00:16 71.1 °F /  21.7 °C 55.1 °F /  12.8 °C 30.00in /  1015.8hPa ESE 4.0mph /  6.4km/h 8.0mph /  12.9km/h 57% 0.00in /  0mm
00:21 71.0 °F /  21.7 °C 55.0 °F /  12.8 °C 30.00in /  1015.8hPa East 7.0mph /  11.3km/h 9.0mph /  14.5km/h 57% 0.00in /  0mm
00:26 71.0 °F /  21.7 °C 55.0 °F /  12.8 °C 30.00in /  1015.8hPa ESE 6.0mph /  9.7km/h 8.0mph /  12.9km/h 57% 0.00in /  0mm
00:31 71.0 °F /  21.7 °C 55.0 °F /  12.8 °C 30.00in /  1015.8hPa ESE 7.0mph /  11.3km/h 8.0mph /  12.9km/h 57% 0.00in /  0mm
00:36 70.8 °F /  21.6 °C 54.8 °F /  12.7 °C 30.00in /  1015.8hPa East 7.0mph /  11.3km/h 8.0mph /  12.9km/h 57% 0.00in /  0mm
00:41 70.6 °F /  21.4 °C 54.6 °F /  12.6 °C 30.00in /  1015.8hPa ESE 4.0mph /  6.4km/h 8.0mph /  12.9km/h 57% 0.00in /  0mm
00:46 70.5 °F /  21.4 °C 55.0 °F /  12.8 °C 30.00in /  1015.8hPa SE 4.0mph /  6.4km/h 8.0mph /  12.9km/h 58% 0.00in /  0mm
00:51 70.3 °F /  21.3 °C 54.8 °F /  12.7 °C 29.99in /  1015.5hPa SE 5.0mph /  8km/h 7.0mph /  11.3km/h 58% 0.00in /  0mm
00:56 70.1 °F /  21.2 °C 54.7 °F /  12.6 °C 29.99in /  1015.5hPa SE 6.0mph /  9.7km/h 9.0mph /  14.5km/h 58% 0.00in /  0mm
01:01 70.0 °F /  21.1 °C 54.6 °F /  12.6 °C 30.00in /  1015.8hPa ESE 4.0mph /  6.4km/h 9.0mph /  14.5km/h 58% 0.00in /  0mm
01:07 69.9 °F /  21.1 °C 54.9 °F /  12.7 °C 30.00in /  1015.8hPa SE 5.0mph /  8km/h 9.0mph /  14.5km/h 59% 0.00in /  0mm
01:12 69.7 °F /  20.9 °C 54.8 °F /  12.7 °C 30.00in /  1015.8hPa SE 5.0mph /  8km/h 7.0mph /  11.3km/h 59% 0.00in /  0mm
01:17 69.5 °F /  20.8 °C 55.0 °F /  12.8 °C 30.00in /  1015.8hPa SE 6.0mph /  9.7km/h 8.0mph /  12.9km/h 60% 0.00in /  0mm
01:22 69.4 °F /  20.8 °C 54.9 °F /  12.7 °C 30.00in /  1015.8hPa ESE 7.0mph /  11.3km/h 8.0mph /  12.9km/h 60% 0.00in /  0mm
01:27 69.3 °F /  20.7 °C 54.8 °F /  12.7 °C 30.00in /  1015.8hPa ESE 5.0mph /  8km/h 7.0mph /  11.3km/h 60% 0.00in /  0mm
01:32 69.2 °F /  20.7 °C 54.7 °F /  12.6 °C 30.00in /  1015.8hPa ESE 8.0mph /  12.9km/h 8.0mph /  12.9km/h 60% 0.00in /  0mm
01:37 69.2 °F /  20.7 °C 54.7 °F /  12.6 °C 30.00in /  1015.8hPa ESE 5.0mph /  8km/h 7.0mph /  11.3km/h 60% 0.00in /  0mm
01:42 69.2 °F /  20.7 °C 54.7 °F /  12.6 °C 30.01in /  1016.1hPa ESE 5.0mph /  8km/h 10.0mph /  16.1km/h 60% 0.00in /  0mm
01:47 69.2 °F /  20.7 °C 54.7 °F /  12.6 °C 30.01in /  1016.1hPa SE 7.0mph /  11.3km/h 9.0mph /  14.5km/h 60% 0.00in /  0mm
01:52 69.1 °F /  20.6 °C 54.7 °F /  12.6 °C 30.01in /  1016.1hPa ESE 5.0mph /  8km/h 8.0mph /  12.9km/h 60% 0.00in /  0mm
01:57 68.8 °F /  20.4 °C 54.8 °F /  12.7 °C 30.01in /  1016.1hPa SE 4.0mph /  6.4km/h 9.0mph /  14.5km/h 61% 0.00in /  0mm
02:02 68.6 °F /  20.3 °C 54.6 °F /  12.6 °C 30.00in /  1015.8hPa SE 3.0mph /  4.8km/h 7.0mph /  11.3km/h 61% 0.00in /  0mm
02:07 68.4 °F /  20.2 °C 54.4 °F /  12.4 °C 30.01in /  1016.1hPa East 5.0mph /  8km/h 8.0mph /  12.9km/h 61% 0.00in /  0mm
02:12 68.3 °F /  20.2 °C 54.8 °F /  12.7 °C 30.01in /  1016.1hPa SE 5.0mph /  8km/h 6.0mph /  9.7km/h 62% 0.00in /  0mm
02:17 68.2 °F /  20.1 °C 54.7 °F /  12.6 °C 30.01in /  1016.1hPa ESE 6.0mph /  9.7km/h 8.0mph /  12.9km/h 62% 0.00in /  0mm
02:22 68.3 °F /  20.2 °C 54.8 °F /  12.7 °C 30.01in /  1016.1hPa ESE 6.0mph /  9.7km/h 8.0mph /  12.9km/h 62% 0.00in /  0mm
02:27 68.3 °F /  20.2 °C 54.8 °F /  12.7 °C 30.01in /  1016.1hPa SE 5.0mph /  8km/h 8.0mph /  12.9km/h 62% 0.00in /  0mm
02:32 68.3 °F /  20.2 °C 54.8 °F /  12.7 °C 30.01in /  1016.1hPa ESE 5.0mph /  8km/h 8.0mph /  12.9km/h 62% 0.00in /  0mm
02:37 68.4 °F /  20.2 °C 54.4 °F /  12.4 °C 30.01in /  1016.1hPa ESE 6.0mph /  9.7km/h 8.0mph /  12.9km/h 61% 0.00in /  0mm
02:42 68.3 °F /  20.2 °C 54.8 °F /  12.7 °C 30.01in /  1016.1hPa SE 4.0mph /  6.4km/h 8.0mph /  12.9km/h 62% 0.00in /  0mm
02:47 68.0 °F /  20 °C 54.5 °F /  12.5 °C 30.01in /  1016.1hPa ESE 4.0mph /  6.4km/h 6.0mph /  9.7km/h 62% 0.00in /  0mm
02:52 67.9 °F /  19.9 °C 54.8 °F /  12.7 °C 30.01in /  1016.1hPa ESE 7.0mph /  11.3km/h 8.0mph /  12.9km/h 63% 0.00in /  0mm
02:57 67.9 °F /  19.9 °C 54.8 °F /  12.7 °C 30.00in /  1015.8hPa ESE 5.0mph /  8km/h 9.0mph /  14.5km/h 63% 0.00in /  0mm
03:02 67.8 °F /  19.9 °C 54.3 °F /  12.4 °C 30.01in /  1016.1hPa ESE 7.0mph /  11.3km/h 8.0mph /  12.9km/h 62% 0.00in /  0mm
03:07 68.0 °F /  20 °C 54.5 °F /  12.5 °C 30.01in /  1016.1hPa ESE 5.0mph /  8km/h 10.0mph /  16.1km/h 62% 0.00in /  0mm
03:12 68.0 °F /  20 °C 54.5 °F /  12.5 °C 30.01in /  1016.1hPa ESE 7.0mph /  11.3km/h 10.0mph /  16.1km/h 62% 0.00in /  0mm
03:17 67.8 °F /  19.9 °C 54.8 °F /  12.7 °C 30.01in /  1016.1hPa ESE 6.0mph /  9.7km/h 7.0mph /  11.3km/h 63% 0.00in /  0mm
03:22 67.9 °F /  19.9 °C 54.8 °F /  12.7 °C 30.00in /  1015.8hPa SE 6.0mph /  9.7km/h 12.0mph /  19.3km/h 63% 0.00in /  0mm
03:27 67.9 °F /  19.9 °C 54.4 °F /  12.4 °C 30.00in /  1015.8hPa SE 6.0mph /  9.7km/h 11.0mph /  17.7km/h 62% 0.00in /  0mm
03:32 67.9 °F /  19.9 °C 54.8 °F /  12.7 °C 30.00in /  1015.8hPa ESE 6.0mph /  9.7km/h 8.0mph /  12.9km/h 63% 0.00in /  0mm
03:37 67.8 °F /  19.9 °C 54.8 °F /  12.7 °C 30.00in /  1015.8hPa ESE 6.0mph /  9.7km/h 9.0mph /  14.5km/h 63% 0.00in /  0mm
03:42 68.0 °F /  20 °C 54.5 °F /  12.5 °C 30.00in /  1015.8hPa East 6.0mph /  9.7km/h 11.0mph /  17.7km/h 62% 0.00in /  0mm
03:47 68.1 °F /  20.1 °C 54.6 °F /  12.6 °C 30.00in /  1015.8hPa ESE 7.0mph /  11.3km/h 9.0mph /  14.5km/h 62% 0.00in /  0mm
03:52 68.1 °F /  20.1 °C 54.6 °F /  12.6 °C 30.00in /  1015.8hPa ESE 10.0mph /  16.1km/h 10.0mph /  16.1km/h 62% 0.00in /  0mm
03:57 68.0 °F /  20 °C 54.5 °F /  12.5 °C 29.99in /  1015.5hPa ESE 8.0mph /  12.9km/h 10.0mph /  16.1km/h 62% 0.00in /  0mm
04:02 68.0 °F /  20 °C 54.5 °F /  12.5 °C 29.99in /  1015.5hPa ESE 9.0mph /  14.5km/h 11.0mph /  17.7km/h 62% 0.00in /  0mm
04:07 68.0 °F /  20 °C 54.5 °F /  12.5 °C 29.99in /  1015.5hPa SE 10.0mph /  16.1km/h 11.0mph /  17.7km/h 62% 0.00in /  0mm
04:12 68.0 °F /  20 °C 55.0 °F /  12.8 °C 30.00in /  1015.8hPa SE 5.0mph /  8km/h 9.0mph /  14.5km/h 63% 0.00in /  0mm
04:18 68.0 °F /  20 °C 54.5 °F /  12.5 °C 29.99in /  1015.5hPa SE 5.0mph /  8km/h 12.0mph /  19.3km/h 62% 0.00in /  0mm
04:23 67.7 °F /  19.8 °C 54.7 °F /  12.6 °C 29.99in /  1015.5hPa ESE 7.0mph /  11.3km/h 10.0mph /  16.1km/h 63% 0.00in /  0mm
04:28 67.4 °F /  19.7 °C 54.8 °F /  12.7 °C 29.99in /  1015.5hPa SE 6.0mph /  9.7km/h 9.0mph /  14.5km/h 64% 0.00in /  0mm
04:33 67.2 °F /  19.6 °C 54.6 °F /  12.6 °C 30.00in /  1015.8hPa ESE 6.0mph /  9.7km/h 8.0mph /  12.9km/h 64% 0.00in /  0mm
04:38 67.1 °F /  19.5 °C 55.0 °F /  12.8 °C 30.00in /  1015.8hPa SE 7.0mph /  11.3km/h 10.0mph /  16.1km/h 65% 0.00in /  0mm
04:43 67.1 °F /  19.5 °C 55.0 °F /  12.8 °C 29.99in /  1015.5hPa ESE 6.0mph /  9.7km/h 9.0mph /  14.5km/h 65% 0.00in /  0mm
04:48 67.2 °F /  19.6 °C 55.0 °F /  12.8 °C 29.99in /  1015.5hPa SE 8.0mph /  12.9km/h 10.0mph /  16.1km/h 65% 0.00in /  0mm
04:53 67.2 °F /  19.6 °C 55.0 °F /  12.8 °C 29.99in /  1015.5hPa East 7.0mph /  11.3km/h 10.0mph /  16.1km/h 65% 0.00in /  0mm
04:58 67.1 °F /  19.5 °C 55.0 °F /  12.8 °C 29.99in /  1015.5hPa ESE 6.0mph /  9.7km/h 10.0mph /  16.1km/h 65% 0.00in /  0mm
05:03 67.0 °F /  19.4 °C 55.3 °F /  12.9 °C 29.99in /  1015.5hPa ESE 8.0mph /  12.9km/h 12.0mph /  19.3km/h 66% 0.00in /  0mm
05:08 67.3 °F /  19.6 °C 55.2 °F /  12.9 °C 29.99in /  1015.5hPa ESE 8.0mph /  12.9km/h 13.0mph /  20.9km/h 65% 0.00in /  0mm
05:13 67.2 °F /  19.6 °C 55.5 °F /  13.1 °C 30.00in /  1015.8hPa SE 5.0mph /  8km/h 13.0mph /  20.9km/h 66% 0.00in /  0mm
05:18 67.0 °F /  19.4 °C 55.3 °F /  12.9 °C 30.00in /  1015.8hPa SE 7.0mph /  11.3km/h 9.0mph /  14.5km/h 66% 0.00in /  0mm
05:23 66.9 °F /  19.4 °C 55.6 °F /  13.1 °C 30.00in /  1015.8hPa ESE 8.0mph /  12.9km/h 11.0mph /  17.7km/h 67% 0.00in /  0mm
05:28 66.9 °F /  19.4 °C 55.6 °F /  13.1 °C 30.00in /  1015.8hPa ESE 9.0mph /  14.5km/h 12.0mph /  19.3km/h 67% 0.00in /  0mm
05:33 67.0 °F /  19.4 °C 55.7 °F /  13.2 °C 30.00in /  1015.8hPa ESE 11.0mph /  17.7km/h 11.0mph /  17.7km/h 67% 0.00in /  0mm
05:38 67.0 °F /  19.4 °C 55.7 °F /  13.2 °C 30.00in /  1015.8hPa ESE 6.0mph /  9.7km/h 13.0mph /  20.9km/h 67% 0.00in /  0mm
05:43 66.9 °F /  19.4 °C 56.0 °F /  13.3 °C 30.00in /  1015.8hPa ESE 9.0mph /  14.5km/h 10.0mph /  16.1km/h 68% 0.00in /  0mm
05:48 66.7 °F /  19.3 °C 55.8 °F /  13.2 °C 30.01in /  1016.1hPa SE 4.0mph /  6.4km/h 11.0mph /  17.7km/h 68% 0.00in /  0mm
05:53 66.6 °F /  19.2 °C 56.1 °F /  13.4 °C 30.01in /  1016.1hPa East 7.0mph /  11.3km/h 10.0mph /  16.1km/h 69% 0.00in /  0mm
05:58 66.6 °F /  19.2 °C 56.1 °F /  13.4 °C 30.01in /  1016.1hPa SE 7.0mph /  11.3km/h 10.0mph /  16.1km/h 69% 0.00in /  0mm
06:03 66.5 °F /  19.2 °C 56.0 °F /  13.3 °C 30.01in /  1016.1hPa SE 11.0mph /  17.7km/h 11.0mph /  17.7km/h 69% 0.00in /  0mm
06:08 66.4 °F /  19.1 °C 56.3 °F /  13.5 °C 30.01in /  1016.1hPa SE 9.0mph /  14.5km/h 9.0mph /  14.5km/h 70% 0.00in /  0mm
06:13 66.6 °F /  19.2 °C 56.5 °F /  13.6 °C 30.02in /  1016.5hPa ESE 6.0mph /  9.7km/h 10.0mph /  16.1km/h 70% 0.00in /  0mm
06:18 66.4 °F /  19.1 °C 56.3 °F /  13.5 °C 30.01in /  1016.1hPa SE 6.0mph /  9.7km/h 10.0mph /  16.1km/h 70% 0.00in /  0mm
06:23 66.4 °F /  19.1 °C 56.3 °F /  13.5 °C 30.01in /  1016.1hPa ESE 8.0mph /  12.9km/h 12.0mph /  19.3km/h 70% 0.00in /  0mm
06:28 66.2 °F /  19 °C 56.5 °F /  13.6 °C 30.02in /  1016.5hPa ESE 6.0mph /  9.7km/h 10.0mph /  16.1km/h 71% 0.00in /  0mm
06:33 66.1 °F /  18.9 °C 56.4 °F /  13.6 °C 30.02in /  1016.5hPa SE 8.0mph /  12.9km/h 9.0mph /  14.5km/h 71% 0.00in /  0mm
06:38 66.2 °F /  19 °C 56.5 °F /  13.6 °C 30.02in /  1016.5hPa SE 5.0mph /  8km/h 10.0mph /  16.1km/h 71% 0.00in /  0mm
06:44 65.8 °F /  18.8 °C 56.5 °F /  13.6 °C 30.01in /  1016.1hPa ESE 8.0mph /  12.9km/h 12.0mph /  19.3km/h 72% 0.00in /  0mm
06:49 65.8 °F /  18.8 °C 56.5 °F /  13.6 °C 30.02in /  1016.5hPa ESE 7.0mph /  11.3km/h 11.0mph /  17.7km/h 72% 0.00in /  0mm
06:54 65.6 °F /  18.7 °C 56.7 °F /  13.7 °C 30.02in /  1016.5hPa SE 10.0mph /  16.1km/h 10.0mph /  16.1km/h 73% 0.00in /  0mm
06:59 65.5 °F /  18.6 °C 56.6 °F /  13.7 °C 30.02in /  1016.5hPa East 9.0mph /  14.5km/h 11.0mph /  17.7km/h 73% 0.00in /  0mm
07:04 65.4 °F /  18.6 °C 56.5 °F /  13.6 °C 30.02in /  1016.5hPa SE 5.0mph /  8km/h 9.0mph /  14.5km/h 73% 0.00in /  0mm
07:09 65.4 °F /  18.6 °C 56.9 °F /  13.8 °C 30.02in /  1016.5hPa ESE 7.0mph /  11.3km/h 10.0mph /  16.1km/h 74% 0.00in /  0mm
07:14 65.2 °F /  18.4 °C 56.7 °F /  13.7 °C 30.02in /  1016.5hPa ESE 5.0mph /  8km/h 10.0mph /  16.1km/h 74% 0.00in /  0mm
07:19 65.0 °F /  18.3 °C 56.5 °F /  13.6 °C 30.03in /  1016.8hPa SE 5.0mph /  8km/h 10.0mph /  16.1km/h 74% 0.00in /  0mm
07:24 64.8 °F /  18.2 °C 56.7 °F /  13.7 °C 30.03in /  1016.8hPa ESE 4.0mph /  6.4km/h 7.0mph /  11.3km/h 75% 0.00in /  0mm
07:29 64.6 °F /  18.1 °C 56.9 °F /  13.8 °C 30.03in /  1016.8hPa ESE 6.0mph /  9.7km/h 7.0mph /  11.3km/h 76% 0.00in /  0mm
07:34 64.6 °F /  18.1 °C 56.9 °F /  13.8 °C 30.03in /  1016.8hPa ESE 5.0mph /  8km/h 7.0mph /  11.3km/h 76% 0.00in /  0mm
07:39 64.3 °F /  17.9 °C 56.6 °F /  13.7 °C 30.03in /  1016.8hPa SE 4.0mph /  6.4km/h 7.0mph /  11.3km/h 76% 0.00in /  0mm
07:44 64.1 °F /  17.8 °C 56.8 °F /  13.8 °C 30.03in /  1016.8hPa ESE 5.0mph /  8km/h 6.0mph /  9.7km/h 77% 0.00in /  0mm
07:49 63.9 °F /  17.7 °C 56.6 °F /  13.7 °C 30.03in /  1016.8hPa ESE 4.0mph /  6.4km/h 5.0mph /  8km/h 77% 0.00in /  0mm
07:54 63.7 °F /  17.6 °C 56.7 °F /  13.7 °C 30.03in /  1016.8hPa ESE 2.0mph /  3.2km/h 7.0mph /  11.3km/h 78% 0.00in /  0mm
07:59 63.6 °F /  17.6 °C 56.6 °F /  13.7 °C 30.03in /  1016.8hPa ESE 5.0mph /  8km/h 6.0mph /  9.7km/h 78% 0.00in /  0mm
08:04 63.6 °F /  17.6 °C 56.6 °F /  13.7 °C 30.04in /  1017.2hPa ESE 5.0mph /  8km/h 6.0mph /  9.7km/h 78% 0.00in /  0mm
08:09 63.7 °F /  17.6 °C 57.1 °F /  13.9 °C 30.04in /  1017.2hPa SE 4.0mph /  6.4km/h 6.0mph /  9.7km/h 79% 0.00in /  0mm
08:14 64.0 °F /  17.8 °C 57.0 °F /  13.9 °C 30.04in /  1017.2hPa ESE 7.0mph /  11.3km/h 7.0mph /  11.3km/h 78% 0.00in /  0mm
08:19 64.3 °F /  17.9 °C 57.3 °F /  14.1 °C 30.04in /  1017.2hPa ESE 5.0mph /  8km/h 7.0mph /  11.3km/h 78% 0.00in /  0mm
08:24 64.6 °F /  18.1 °C 57.2 °F /  14 °C 30.03in /  1016.8hPa ESE 4.0mph /  6.4km/h 5.0mph /  8km/h 77% 0.00in /  0mm
08:29 64.7 °F /  18.2 °C 57.7 °F /  14.3 °C 30.04in /  1017.2hPa ESE 4.0mph /  6.4km/h 6.0mph /  9.7km/h 78% 0.00in /  0mm
08:34 64.8 °F /  18.2 °C 57.4 °F /  14.1 °C 30.04in /  1017.2hPa East 5.0mph /  8km/h 6.0mph /  9.7km/h 77% 0.00in /  0mm
08:39 65.1 °F /  18.4 °C 57.7 °F /  14.3 °C 30.04in /  1017.2hPa ESE 5.0mph /  8km/h 7.0mph /  11.3km/h 77% 0.00in /  0mm
08:44 65.3 °F /  18.5 °C 57.9 °F /  14.4 °C 30.04in /  1017.2hPa ESE 6.0mph /  9.7km/h 8.0mph /  12.9km/h 77% 0.00in /  0mm
08:49 65.6 °F /  18.7 °C 57.8 °F /  14.3 °C 30.04in /  1017.2hPa ESE 7.0mph /  11.3km/h 8.0mph /  12.9km/h 76% 0.00in /  0mm
08:54 65.9 °F /  18.8 °C 58.1 °F /  14.5 °C 30.04in /  1017.2hPa East 7.0mph /  11.3km/h 9.0mph /  14.5km/h 76% 0.00in /  0mm
08:59 66.2 °F /  19 °C 58.4 °F /  14.7 °C 30.04in /  1017.2hPa ESE 5.0mph /  8km/h 8.0mph /  12.9km/h 76% 0.00in /  0mm
09:04 66.4 °F /  19.1 °C 58.2 °F /  14.6 °C 30.05in /  1017.5hPa East 6.0mph /  9.7km/h 9.0mph /  14.5km/h 75% 0.00in /  0mm
09:09 66.7 °F /  19.3 °C 58.5 °F /  14.7 °C 30.05in /  1017.5hPa ESE 8.0mph /  12.9km/h 10.0mph /  16.1km/h 75% 0.00in /  0mm
09:14 66.9 °F /  19.4 °C 58.7 °F /  14.8 °C 30.04in /  1017.2hPa ENE 6.0mph /  9.7km/h 11.0mph /  17.7km/h 75% 0.00in /  0mm
09:19 67.2 °F /  19.6 °C 59.4 °F /  15.2 °C 30.05in /  1017.5hPa ESE 4.0mph /  6.4km/h 7.0mph /  11.3km/h 76% 0.00in /  0mm
09:24 67.3 °F /  19.6 °C 59.1 °F /  15.1 °C 30.05in /  1017.5hPa ESE 6.0mph /  9.7km/h 12.0mph /  19.3km/h 75% 0.00in /  0mm
09:29 67.6 °F /  19.8 °C 59.4 °F /  15.2 °C 30.04in /  1017.2hPa East 9.0mph /  14.5km/h 11.0mph /  17.7km/h 75% 0.00in /  0mm
09:34 67.8 °F /  19.9 °C 59.2 °F /  15.1 °C 30.04in /  1017.2hPa ESE 8.0mph /  12.9km/h 11.0mph /  17.7km/h 74% 0.00in /  0mm
09:39 68.0 °F /  20 °C 59.4 °F /  15.2 °C 30.05in /  1017.5hPa ESE 8.0mph /  12.9km/h 13.0mph /  20.9km/h 74% 0.00in /  0mm
09:44 68.2 °F /  20.1 °C 59.6 °F /  15.3 °C 30.04in /  1017.2hPa ESE 6.0mph /  9.7km/h 12.0mph /  19.3km/h 74% 0.00in /  0mm
09:49 68.4 °F /  20.2 °C 59.8 °F /  15.4 °C 30.04in /  1017.2hPa ESE 8.0mph /  12.9km/h 14.0mph /  22.5km/h 74% 0.00in /  0mm
09:54 68.7 °F /  20.4 °C 59.7 °F /  15.4 °C 30.04in /  1017.2hPa ESE 8.0mph /  12.9km/h 12.0mph /  19.3km/h 73% 0.00in /  0mm
09:59 69.0 °F /  20.6 °C 59.6 °F /  15.3 °C 30.04in /  1017.2hPa ESE 15.0mph /  24.1km/h 15.0mph /  24.1km/h 72% 0.00in /  0mm
10:04 69.2 °F /  20.7 °C 60.6 °F /  15.9 °C 30.04in /  1017.2hPa SE 7.0mph /  11.3km/h 12.0mph /  19.3km/h 74% 0.00in /  0mm
10:09 69.3 °F /  20.7 °C 60.3 °F /  15.7 °C 30.05in /  1017.5hPa ESE 9.0mph /  14.5km/h 13.0mph /  20.9km/h 73% 0.00in /  0mm
10:14 69.7 °F /  20.9 °C 60.7 °F /  15.9 °C 30.05in /  1017.5hPa ESE 11.0mph /  17.7km/h 12.0mph /  19.3km/h 73% 0.00in /  0mm
10:19 70.0 °F /  21.1 °C 61.0 °F /  16.1 °C 30.05in /  1017.5hPa SE 12.0mph /  19.3km/h 14.0mph /  22.5km/h 73% 0.00in /  0mm
10:24 70.1 °F /  21.2 °C 60.3 °F /  15.7 °C 30.05in /  1017.5hPa ESE 11.0mph /  17.7km/h 18.0mph /  29km/h 71% 0.00in /  0mm
10:29 70.3 °F /  21.3 °C 60.5 °F /  15.8 °C 30.05in /  1017.5hPa ESE 16.0mph /  25.7km/h 16.0mph /  25.7km/h 71% 0.00in /  0mm
10:35 70.5 °F /  21.4 °C 60.7 °F /  15.9 °C 30.05in /  1017.5hPa SE 8.0mph /  12.9km/h 15.0mph /  24.1km/h 71% 0.00in /  0mm
10:40 70.7 °F /  21.5 °C 60.8 °F /  16 °C 30.05in /  1017.5hPa ESE 15.0mph /  24.1km/h 17.0mph /  27.4km/h 71% 0.00in /  0mm
10:41 70.8 °F /  21.6 °C 60.5 °F /  15.8 °C 30.05in /  1017.5hPa SE 11.0mph /  17.7km/h 17.0mph /  27.4km/h 70% 0.00in /  0mm
10:46 71.0 °F /  21.7 °C 60.7 °F /  15.9 °C 30.05in /  1017.5hPa ESE 12.0mph /  19.3km/h 16.0mph /  25.7km/h 70% 0.00in /  0mm
10:51 71.3 °F /  21.8 °C 61.0 °F /  16.1 °C 30.05in /  1017.5hPa SE 13.0mph /  20.9km/h 13.0mph /  20.9km/h 70% 0.00in /  0mm
10:56 71.6 °F /  22 °C 60.5 °F /  15.8 °C 30.05in /  1017.5hPa SE 7.0mph /  11.3km/h 15.0mph /  24.1km/h 68% 0.00in /  0mm
11:01 71.8 °F /  22.1 °C 60.7 °F /  15.9 °C 30.05in /  1017.5hPa SE 10.0mph /  16.1km/h 13.0mph /  20.9km/h 68% 0.00in /  0mm
11:06 72.1 °F /  22.3 °C 61.4 °F /  16.3 °C 30.05in /  1017.5hPa SE 15.0mph /  24.1km/h 16.0mph /  25.7km/h 69% 0.00in /  0mm
11:11 72.2 °F /  22.3 °C 60.7 °F /  15.9 °C 30.05in /  1017.5hPa SE 11.0mph /  17.7km/h 15.0mph /  24.1km/h 67% 0.00in /  0mm
11:16 72.2 °F /  22.3 °C 61.1 °F /  16.2 °C 30.05in /  1017.5hPa ESE 11.0mph /  17.7km/h 17.0mph /  27.4km/h 68% 0.00in /  0mm
11:21 72.6 °F /  22.6 °C 61.4 °F /  16.3 °C 30.05in /  1017.5hPa ESE 16.0mph /  25.7km/h 16.0mph /  25.7km/h 68% 0.00in /  0mm
11:26 72.6 °F /  22.6 °C 61.4 °F /  16.3 °C 30.05in /  1017.5hPa SE 12.0mph /  19.3km/h 14.0mph /  22.5km/h 68% 0.00in /  0mm
11:31 72.7 °F /  22.6 °C 62.0 °F /  16.7 °C 30.05in /  1017.5hPa ESE 13.0mph /  20.9km/h 21.0mph /  33.8km/h 69% 0.00in /  0mm
11:37 72.8 °F /  22.7 °C 61.6 °F /  16.4 °C 30.05in /  1017.5hPa SE 11.0mph /  17.7km/h 18.0mph /  29km/h 68% 0.00in /  0mm
11:42 73.0 °F /  22.8 °C 61.8 °F /  16.6 °C 30.05in /  1017.5hPa SE 12.0mph /  19.3km/h 17.0mph /  27.4km/h 68% 0.00in /  0mm
11:47 73.4 °F /  23 °C 62.2 °F /  16.8 °C 30.04in /  1017.2hPa ESE 13.0mph /  20.9km/h 17.0mph /  27.4km/h 68% 0.00in /  0mm
11:52 73.5 °F /  23.1 °C 62.3 °F /  16.8 °C 30.04in /  1017.2hPa SE 12.0mph /  19.3km/h 17.0mph /  27.4km/h 68% 0.00in /  0mm
11:57 73.5 °F /  23.1 °C 61.9 °F /  16.6 °C 30.05in /  1017.5hPa ESE 13.0mph /  20.9km/h 17.0mph /  27.4km/h 67% 0.00in /  0mm
12:02 73.7 °F /  23.2 °C 63.3 °F /  17.4 °C 30.04in /  1017.2hPa ESE 9.0mph /  14.5km/h 13.0mph /  20.9km/h 70% 0.00in /  0mm
12:07 73.9 °F /  23.3 °C 62.3 °F /  16.8 °C 30.04in /  1017.2hPa ESE 18.0mph /  29km/h 21.0mph /  33.8km/h 67% 0.00in /  0mm
12:12 73.9 °F /  23.3 °C 62.3 °F /  16.8 °C 30.04in /  1017.2hPa ESE 8.0mph /  12.9km/h 16.0mph /  25.7km/h 67% 0.00in /  0mm
12:17 74.5 °F /  23.6 °C 62.8 °F /  17.1 °C 30.03in /  1016.8hPa SE 11.0mph /  17.7km/h 15.0mph /  24.1km/h 67% 0.00in /  0mm
12:22 74.6 °F /  23.7 °C 62.1 °F /  16.7 °C 30.03in /  1016.8hPa ESE 15.0mph /  24.1km/h 16.0mph /  25.7km/h 65% 0.00in /  0mm
12:27 74.6 °F /  23.7 °C 62.9 °F /  17.2 °C 30.03in /  1016.8hPa ESE 14.0mph /  22.5km/h 15.0mph /  24.1km/h 67% 0.00in /  0mm
12:32 74.9 °F /  23.8 °C 63.6 °F /  17.6 °C 30.03in /  1016.8hPa SE 11.0mph /  17.7km/h 12.0mph /  19.3km/h 68% 0.00in /  0mm
12:37 74.9 °F /  23.8 °C 61.5 °F /  16.4 °C 30.03in /  1016.8hPa ESE 11.0mph /  17.7km/h 18.0mph /  29km/h 63% 0.00in /  0mm
12:42 75.2 °F /  24 °C 63.1 °F /  17.3 °C 30.03in /  1016.8hPa ESE 15.0mph /  24.1km/h 15.0mph /  24.1km/h 66% 0.00in /  0mm
12:47 75.5 °F /  24.2 °C 62.9 °F /  17.2 °C 30.03in /  1016.8hPa SE 12.0mph /  19.3km/h 13.0mph /  20.9km/h 65% 0.00in /  0mm
12:52 75.1 °F /  23.9 °C 63.0 °F /  17.2 °C 30.03in /  1016.8hPa SE 13.0mph /  20.9km/h 15.0mph /  24.1km/h 66% 0.00in /  0mm
12:57 74.8 °F /  23.8 °C 61.8 °F /  16.6 °C 30.03in /  1016.8hPa SE 11.0mph /  17.7km/h 16.0mph /  25.7km/h 64% 0.00in /  0mm
13:02 74.6 °F /  23.7 °C 61.6 °F /  16.4 °C 30.03in /  1016.8hPa SE 8.0mph /  12.9km/h 18.0mph /  29km/h 64% 0.00in /  0mm
13:07 74.5 °F /  23.6 °C 62.8 °F /  17.1 °C 30.03in /  1016.8hPa SE 10.0mph /  16.1km/h 15.0mph /  24.1km/h 67% 0.00in /  0mm
13:12 75.2 °F /  24 °C 62.2 °F /  16.8 °C 30.03in /  1016.8hPa SE 12.0mph /  19.3km/h 14.0mph /  22.5km/h 64% 0.00in /  0mm
13:17 75.2 °F /  24 °C 62.2 °F /  16.8 °C 30.03in /  1016.8hPa ESE 12.0mph /  19.3km/h 15.0mph /  24.1km/h 64% 0.00in /  0mm
13:22 75.2 °F /  24 °C 61.8 °F /  16.6 °C 30.03in /  1016.8hPa SE 13.0mph /  20.9km/h 24.0mph /  38.6km/h 63% 0.00in /  0mm
13:27 75.0 °F /  23.9 °C 62.0 °F /  16.7 °C 30.04in /  1017.2hPa SSE 13.0mph /  20.9km/h 17.0mph /  27.4km/h 64% 0.00in /  0mm
13:33 74.6 °F /  23.7 °C 62.1 °F /  16.7 °C 30.04in /  1017.2hPa SE 11.0mph /  17.7km/h 17.0mph /  27.4km/h 65% 0.00in /  0mm
13:38 74.4 °F /  23.6 °C 62.3 °F /  16.8 °C 30.03in /  1016.8hPa ESE 15.0mph /  24.1km/h 22.0mph /  35.4km/h 66% 0.00in /  0mm
13:43 74.3 °F /  23.5 °C 62.2 °F /  16.8 °C 30.03in /  1016.8hPa ESE 16.0mph /  25.7km/h 16.0mph /  25.7km/h 66% 0.00in /  0mm
13:48 74.3 °F /  23.5 °C 61.8 °F /  16.6 °C 30.03in /  1016.8hPa ESE 14.0mph /  22.5km/h 16.0mph /  25.7km/h 65% 0.00in /  0mm
13:53 74.4 °F /  23.6 °C 61.9 °F /  16.6 °C 30.03in /  1016.8hPa East 6.0mph /  9.7km/h 13.0mph /  20.9km/h 65% 0.00in /  0mm
13:58 74.7 °F /  23.7 °C 63.0 °F /  17.2 °C 30.03in /  1016.8hPa SSE 7.0mph /  11.3km/h 9.0mph /  14.5km/h 67% 0.00in /  0mm
14:03 75.1 °F /  23.9 °C 61.7 °F /  16.5 °C 30.03in /  1016.8hPa SE 13.0mph /  20.9km/h 22.0mph /  35.4km/h 63% 0.00in /  0mm
14:08 75.1 °F /  23.9 °C 62.1 °F /  16.7 °C 30.03in /  1016.8hPa SE 5.0mph /  8km/h 15.0mph /  24.1km/h 64% 0.00in /  0mm
14:13 75.3 °F /  24.1 °C 62.7 °F /  17.1 °C 30.03in /  1016.8hPa SE 9.0mph /  14.5km/h 17.0mph /  27.4km/h 65% 0.00in /  0mm
14:18 75.6 °F /  24.2 °C 63.0 °F /  17.2 °C 30.02in /  1016.5hPa ESE 10.0mph /  16.1km/h 14.0mph /  22.5km/h 65% 0.00in /  0mm
14:23 75.7 °F /  24.3 °C 63.1 °F /  17.3 °C 30.02in /  1016.5hPa ESE 14.0mph /  22.5km/h 17.0mph /  27.4km/h 65% 0.00in /  0mm
14:28 75.4 °F /  24.1 °C 61.9 °F /  16.6 °C 30.03in /  1016.8hPa SE 13.0mph /  20.9km/h 18.0mph /  29km/h 63% 0.00in /  0mm
14:33 75.5 °F /  24.2 °C 62.5 °F /  16.9 °C 30.02in /  1016.5hPa SE 17.0mph /  27.4km/h 17.0mph /  27.4km/h 64% 0.00in /  0mm
14:38 75.8 °F /  24.3 °C 63.2 °F /  17.3 °C 30.02in /  1016.5hPa SSE 14.0mph /  22.5km/h 16.0mph /  25.7km/h 65% 0.00in /  0mm
14:43 75.9 °F /  24.4 °C 62.4 °F /  16.9 °C 30.02in /  1016.5hPa ESE 11.0mph /  17.7km/h 19.0mph /  30.6km/h 63% 0.00in /  0mm
14:48 75.9 °F /  24.4 °C 62.4 °F /  16.9 °C 30.01in /  1016.1hPa ESE 10.0mph /  16.1km/h 17.0mph /  27.4km/h 63% 0.00in /  0mm
14:53 75.7 °F /  24.3 °C 62.2 °F /  16.8 °C 30.01in /  1016.1hPa SE 11.0mph /  17.7km/h 16.0mph /  25.7km/h 63% 0.00in /  0mm
14:58 75.7 °F /  24.3 °C 62.2 °F /  16.8 °C 30.00in /  1015.8hPa ESE 15.0mph /  24.1km/h 16.0mph /  25.7km/h 63% 0.00in /  0mm
15:03 75.7 °F /  24.3 °C 61.8 °F /  16.6 °C 30.01in /  1016.1hPa SE 14.0mph /  22.5km/h 15.0mph /  24.1km/h 62% 0.00in /  0mm
15:08 75.8 °F /  24.3 °C 60.9 °F /  16.1 °C 30.00in /  1015.8hPa SE 8.0mph /  12.9km/h 22.0mph /  35.4km/h 60% 0.00in /  0mm
15:13 76.1 °F /  24.5 °C 60.8 °F /  16 °C 30.00in /  1015.8hPa SSE 12.0mph /  19.3km/h 15.0mph /  24.1km/h 59% 0.00in /  0mm
15:18 76.1 °F /  24.5 °C 61.2 °F /  16.2 °C 30.00in /  1015.8hPa SE 15.0mph /  24.1km/h 17.0mph /  27.4km/h 60% 0.00in /  0mm
15:23 76.3 °F /  24.6 °C 61.9 °F /  16.6 °C 30.00in /  1015.8hPa ESE 14.0mph /  22.5km/h 18.0mph /  29km/h 61% 0.00in /  0mm
15:28 76.5 °F /  24.7 °C 61.6 °F /  16.4 °C 30.00in /  1015.8hPa SE 10.0mph /  16.1km/h 12.0mph /  19.3km/h 60% 0.00in /  0mm
15:33 76.6 °F /  24.8 °C 63.1 °F /  17.3 °C 30.00in /  1015.8hPa ESE 9.0mph /  14.5km/h 9.0mph /  14.5km/h 63% 0.00in /  0mm
15:38 76.7 °F /  24.8 °C 62.2 °F /  16.8 °C 29.99in /  1015.5hPa SE 11.0mph /  17.7km/h 13.0mph /  20.9km/h 61% 0.00in /  0mm
15:43 76.5 °F /  24.7 °C 62.1 °F /  16.7 °C 29.99in /  1015.5hPa ESE 10.0mph /  16.1km/h 15.0mph /  24.1km/h 61% 0.00in /  0mm
15:49 76.4 °F /  24.7 °C 61.0 °F /  16.1 °C 29.99in /  1015.5hPa ESE 14.0mph /  22.5km/h 14.0mph /  22.5km/h 59% 0.00in /  0mm
15:54 76.2 °F /  24.6 °C 61.3 °F /  16.3 °C 29.98in /  1015.1hPa SE 11.0mph /  17.7km/h 17.0mph /  27.4km/h 60% 0.00in /  0mm
15:59 76.3 °F /  24.6 °C 61.4 °F /  16.3 °C 29.99in /  1015.5hPa SE 7.0mph /  11.3km/h 15.0mph /  24.1km/h 60% 0.00in /  0mm
16:04 76.2 °F /  24.6 °C 61.3 °F /  16.3 °C 29.98in /  1015.1hPa ESE 10.0mph /  16.1km/h 17.0mph /  27.4km/h 60% 0.00in /  0mm
16:09 76.2 °F /  24.6 °C 60.8 °F /  16 °C 29.98in /  1015.1hPa ESE 11.0mph /  17.7km/h 14.0mph /  22.5km/h 59% 0.00in /  0mm
16:14 76.3 °F /  24.6 °C 61.9 °F /  16.6 °C 29.98in /  1015.1hPa SSE 8.0mph /  12.9km/h 14.0mph /  22.5km/h 61% 0.00in /  0mm
16:19 76.2 °F /  24.6 °C 61.3 °F /  16.3 °C 29.99in /  1015.5hPa East 15.0mph /  24.1km/h 15.0mph /  24.1km/h 60% 0.00in /  0mm
16:24 76.0 °F /  24.4 °C 60.2 °F /  15.7 °C 29.98in /  1015.1hPa ESE 12.0mph /  19.3km/h 17.0mph /  27.4km/h 58% 0.00in /  0mm
16:29 75.9 °F /  24.4 °C 60.6 °F /  15.9 °C 29.99in /  1015.5hPa ESE 9.0mph /  14.5km/h 15.0mph /  24.1km/h 59% 0.00in /  0mm
16:34 76.0 °F /  24.4 °C 60.7 °F /  15.9 °C 29.99in /  1015.5hPa ESE 10.0mph /  16.1km/h 13.0mph /  20.9km/h 59% 0.00in /  0mm
16:39 76.0 °F /  24.4 °C 61.1 °F /  16.2 °C 29.98in /  1015.1hPa SE 14.0mph /  22.5km/h 14.0mph /  22.5km/h 60% 0.00in /  0mm
16:44 76.0 °F /  24.4 °C 60.2 °F /  15.7 °C 29.98in /  1015.1hPa ESE 9.0mph /  14.5km/h 15.0mph /  24.1km/h 58% 0.00in /  0mm
16:49 75.9 °F /  24.4 °C 60.1 °F /  15.6 °C 29.98in /  1015.1hPa SE 7.0mph /  11.3km/h 16.0mph /  25.7km/h 58% 0.00in /  0mm
16:54 75.8 °F /  24.3 °C 60.5 °F /  15.8 °C 29.99in /  1015.5hPa SE 9.0mph /  14.5km/h 15.0mph /  24.1km/h 59% 0.00in /  0mm
16:59 75.7 °F /  24.3 °C 59.9 °F /  15.5 °C 29.98in /  1015.1hPa ESE 10.0mph /  16.1km/h 16.0mph /  25.7km/h 58% 0.00in /  0mm
17:04 75.5 °F /  24.2 °C 60.7 °F /  15.9 °C 29.98in /  1015.1hPa ESE 10.0mph /  16.1km/h 13.0mph /  20.9km/h 60% 0.00in /  0mm
17:09 75.3 °F /  24.1 °C 60.0 °F /  15.6 °C 29.98in /  1015.1hPa ESE 9.0mph /  14.5km/h 11.0mph /  17.7km/h 59% 0.00in /  0mm
17:14 75.3 °F /  24.1 °C 60.5 °F /  15.8 °C 29.98in /  1015.1hPa SE 5.0mph /  8km/h 10.0mph /  16.1km/h 60% 0.00in /  0mm
17:19 75.3 °F /  24.1 °C 60.0 °F /  15.6 °C 29.98in /  1015.1hPa SE 9.0mph /  14.5km/h 18.0mph /  29km/h 59% 0.00in /  0mm
17:24 75.3 °F /  24.1 °C 60.0 °F /  15.6 °C 29.98in /  1015.1hPa SE 8.0mph /  12.9km/h 13.0mph /  20.9km/h 59% 0.00in /  0mm
17:29 75.3 °F /  24.1 °C 60.0 °F /  15.6 °C 29.98in /  1015.1hPa SE 9.0mph /  14.5km/h 15.0mph /  24.1km/h 59% 0.00in /  0mm
17:34 75.2 °F /  24 °C 59.4 °F /  15.2 °C 29.98in /  1015.1hPa ESE 10.0mph /  16.1km/h 15.0mph /  24.1km/h 58% 0.00in /  0mm
17:39 75.2 °F /  24 °C 59.4 °F /  15.2 °C 29.98in /  1015.1hPa East 11.0mph /  17.7km/h 11.0mph /  17.7km/h 58% 0.00in /  0mm
17:44 75.3 °F /  24.1 °C 59.5 °F /  15.3 °C 29.98in /  1015.1hPa SE 9.0mph /  14.5km/h 13.0mph /  20.9km/h 58% 0.00in /  0mm
17:49 75.2 °F /  24 °C 59.4 °F /  15.2 °C 29.98in /  1015.1hPa SE 12.0mph /  19.3km/h 13.0mph /  20.9km/h 58% 0.00in /  0mm
17:54 75.3 °F /  24.1 °C 59.0 °F /  15 °C 29.98in /  1015.1hPa ESE 10.0mph /  16.1km/h 15.0mph /  24.1km/h 57% 0.00in /  0mm
17:59 75.2 °F /  24 °C 59.4 °F /  15.2 °C 29.97in /  1014.8hPa SE 9.0mph /  14.5km/h 11.0mph /  17.7km/h 58% 0.00in /  0mm
18:04 74.9 °F /  23.8 °C 59.1 °F /  15.1 °C 29.97in /  1014.8hPa ESE 8.0mph /  12.9km/h 10.0mph /  16.1km/h 58% 0.00in /  0mm
18:09 74.9 °F /  23.8 °C 59.1 °F /  15.1 °C 29.97in /  1014.8hPa ESE 8.0mph /  12.9km/h 11.0mph /  17.7km/h 58% 0.00in /  0mm
18:14 75.1 °F /  23.9 °C 59.3 °F /  15.2 °C 29.97in /  1014.8hPa SE 6.0mph /  9.7km/h 11.0mph /  17.7km/h 58% 0.00in /  0mm
18:19 75.2 °F /  24 °C 59.4 °F /  15.2 °C 29.97in /  1014.8hPa ESE 6.0mph /  9.7km/h 11.0mph /  17.7km/h 58% 0.00in /  0mm
18:24 75.3 °F /  24.1 °C 58.5 °F /  14.7 °C 29.97in /  1014.8hPa SE 8.0mph /  12.9km/h 16.0mph /  25.7km/h 56% 0.00in /  0mm
18:29 75.4 °F /  24.1 °C 59.1 °F /  15.1 °C 29.97in /  1014.8hPa ESE 7.0mph /  11.3km/h 16.0mph /  25.7km/h 57% 0.00in /  0mm
18:34 75.3 °F /  24.1 °C 59.5 °F /  15.3 °C 29.97in /  1014.8hPa East 10.0mph /  16.1km/h 14.0mph /  22.5km/h 58% 0.00in /  0mm
18:40 75.1 °F /  23.9 °C 58.8 °F /  14.9 °C 29.96in /  1014.4hPa SE 10.0mph /  16.1km/h 15.0mph /  24.1km/h 57% 0.00in /  0mm
18:45 75.0 °F /  23.9 °C 58.8 °F /  14.9 °C 29.97in /  1014.8hPa SE 8.0mph /  12.9km/h 12.0mph /  19.3km/h 57% 0.00in /  0mm
18:50 74.7 °F /  23.7 °C 59.4 °F /  15.2 °C 29.96in /  1014.4hPa ESE 6.0mph /  9.7km/h 9.0mph /  14.5km/h 59% 0.00in /  0mm
18:55 74.5 °F /  23.6 °C 59.2 °F /  15.1 °C 29.96in /  1014.4hPa SE 6.0mph /  9.7km/h 10.0mph /  16.1km/h 59% 0.00in /  0mm
19:00 74.6 °F /  23.7 °C 58.9 °F /  14.9 °C 29.96in /  1014.4hPa ESE 7.0mph /  11.3km/h 11.0mph /  17.7km/h 58% 0.00in /  0mm
19:05 74.4 °F /  23.6 °C 58.7 °F /  14.8 °C 29.97in /  1014.8hPa ESE 4.0mph /  6.4km/h 9.0mph /  14.5km/h 58% 0.00in /  0mm
19:10 74.2 °F /  23.4 °C 59.0 °F /  15 °C 29.97in /  1014.8hPa SE 7.0mph /  11.3km/h 11.0mph /  17.7km/h 59% 0.00in /  0mm
19:15 74.2 °F /  23.4 °C 59.0 °F /  15 °C 29.96in /  1014.4hPa East 10.0mph /  16.1km/h 11.0mph /  17.7km/h 59% 0.00in /  0mm
19:20 73.9 °F /  23.3 °C 58.7 °F /  14.8 °C 29.97in /  1014.8hPa ESE 6.0mph /  9.7km/h 8.0mph /  12.9km/h 59% 0.00in /  0mm
19:25 73.7 °F /  23.2 °C 58.5 °F /  14.7 °C 29.97in /  1014.8hPa ESE 5.0mph /  8km/h 6.0mph /  9.7km/h 59% 0.00in /  0mm
19:30 73.7 °F /  23.2 °C 58.5 °F /  14.7 °C 29.97in /  1014.8hPa ESE 6.0mph /  9.7km/h 9.0mph /  14.5km/h 59% 0.00in /  0mm
19:35 73.6 °F /  23.1 °C 58.4 °F /  14.7 °C 29.97in /  1014.8hPa East 7.0mph /  11.3km/h 7.0mph /  11.3km/h 59% 0.00in /  0mm
19:40 73.3 °F /  22.9 °C 58.6 °F /  14.8 °C 29.97in /  1014.8hPa ESE 5.0mph /  8km/h 6.0mph /  9.7km/h 60% 0.00in /  0mm
19:45 73.0 °F /  22.8 °C 58.3 °F /  14.6 °C 29.97in /  1014.8hPa SE 4.0mph /  6.4km/h 8.0mph /  12.9km/h 60% 0.00in /  0mm
19:46 73.0 °F /  22.8 °C 58.3 °F /  14.6 °C 29.97in /  1014.8hPa ESE 7.0mph /  11.3km/h 8.0mph /  12.9km/h 60% 0.00in /  0mm
19:51 72.9 °F /  22.7 °C 58.2 °F /  14.6 °C 29.97in /  1014.8hPa ESE 5.0mph /  8km/h 8.0mph /  12.9km/h 60% 0.00in /  0mm
19:56 72.9 °F /  22.7 °C 58.2 °F /  14.6 °C 29.97in /  1014.8hPa SE 5.0mph /  8km/h 7.0mph /  11.3km/h 60% 0.00in /  0mm
20:02 72.8 °F /  22.7 °C 58.6 °F /  14.8 °C 29.97in /  1014.8hPa ESE 4.0mph /  6.4km/h 5.0mph /  8km/h 61% 0.00in /  0mm
20:07 72.4 °F /  22.4 °C 58.2 °F /  14.6 °C 29.97in /  1014.8hPa ESE 2.0mph /  3.2km/h 5.0mph /  8km/h 61% 0.00in /  0mm
20:11 72.0 °F /  22.2 °C 58.3 °F /  14.6 °C 29.97in /  1014.8hPa ESE 4.0mph /  6.4km/h 5.0mph /  8km/h 62% 0.00in /  0mm
20:16 71.8 °F /  22.1 °C 58.5 °F /  14.7 °C 29.97in /  1014.8hPa ESE 3.0mph /  4.8km/h 5.0mph /  8km/h 63% 0.00in /  0mm
20:22 71.8 °F /  22.1 °C 58.5 °F /  14.7 °C 29.97in /  1014.8hPa ESE 4.0mph /  6.4km/h 7.0mph /  11.3km/h 63% 0.00in /  0mm
20:27 71.6 °F /  22 °C 58.8 °F /  14.9 °C 29.98in /  1015.1hPa East 3.0mph /  4.8km/h 6.0mph /  9.7km/h 64% 0.00in /  0mm
20:32 71.5 °F /  21.9 °C 58.7 °F /  14.8 °C 29.98in /  1015.1hPa East 4.0mph /  6.4km/h 7.0mph /  11.3km/h 64% 0.00in /  0mm
20:37 71.3 °F /  21.8 °C 58.9 °F /  14.9 °C 29.98in /  1015.1hPa East 4.0mph /  6.4km/h 5.0mph /  8km/h 65% 0.00in /  0mm
20:42 71.1 °F /  21.7 °C 58.8 °F /  14.9 °C 29.98in /  1015.1hPa East 4.0mph /  6.4km/h 5.0mph /  8km/h 65% 0.00in /  0mm
20:47 70.9 °F /  21.6 °C 59.0 °F /  15 °C 29.98in /  1015.1hPa East 3.0mph /  4.8km/h 4.0mph /  6.4km/h 66% 0.00in /  0mm
20:52 70.7 °F /  21.5 °C 58.8 °F /  14.9 °C 29.98in /  1015.1hPa ESE 4.0mph /  6.4km/h 7.0mph /  11.3km/h 66% 0.00in /  0mm
20:57 70.6 °F /  21.4 °C 58.7 °F /  14.8 °C 29.98in /  1015.1hPa ESE 3.0mph /  4.8km/h 6.0mph /  9.7km/h 66% 0.00in /  0mm
21:02 70.6 °F /  21.4 °C 58.7 °F /  14.8 °C 29.99in /  1015.5hPa East 4.0mph /  6.4km/h 8.0mph /  12.9km/h 66% 0.00in /  0mm
21:07 70.5 °F /  21.4 °C 58.6 °F /  14.8 °C 29.99in /  1015.5hPa ESE 4.0mph /  6.4km/h 6.0mph /  9.7km/h 66% 0.00in /  0mm
21:12 70.5 °F /  21.4 °C 58.6 °F /  14.8 °C 29.99in /  1015.5hPa ESE 3.0mph /  4.8km/h 8.0mph /  12.9km/h 66% 0.00in /  0mm
21:17 70.6 °F /  21.4 °C 58.7 °F /  14.8 °C 29.99in /  1015.5hPa East 6.0mph /  9.7km/h 9.0mph /  14.5km/h 66% 0.00in /  0mm
21:22 70.6 °F /  21.4 °C 58.7 °F /  14.8 °C 29.99in /  1015.5hPa ESE 6.0mph /  9.7km/h 8.0mph /  12.9km/h 66% 0.00in /  0mm
21:27 70.8 °F /  21.6 °C 58.9 °F /  14.9 °C 29.99in /  1015.5hPa ENE 4.0mph /  6.4km/h 10.0mph /  16.1km/h 66% 0.00in /  0mm
21:32 70.9 °F /  21.6 °C 58.6 °F /  14.8 °C 29.99in /  1015.5hPa East 7.0mph /  11.3km/h 9.0mph /  14.5km/h 65% 0.00in /  0mm
21:37 70.8 °F /  21.6 °C 58.9 °F /  14.9 °C 29.99in /  1015.5hPa ESE 6.0mph /  9.7km/h 7.0mph /  11.3km/h 66% 0.00in /  0mm
21:43 71.0 °F /  21.7 °C 58.7 °F /  14.8 °C 29.99in /  1015.5hPa ESE 4.0mph /  6.4km/h 8.0mph /  12.9km/h 65% 0.00in /  0mm
21:48 70.8 °F /  21.6 °C 58.9 °F /  14.9 °C 30.00in /  1015.8hPa ESE 3.0mph /  4.8km/h 9.0mph /  14.5km/h 66% 0.00in /  0mm
21:53 70.6 °F /  21.4 °C 58.7 °F /  14.8 °C 30.00in /  1015.8hPa East 4.0mph /  6.4km/h 6.0mph /  9.7km/h 66% 0.00in /  0mm
21:58 70.5 °F /  21.4 °C 58.6 °F /  14.8 °C 30.00in /  1015.8hPa ESE 5.0mph /  8km/h 5.0mph /  8km/h 66% 0.00in /  0mm
22:03 70.3 °F /  21.3 °C 58.8 °F /  14.9 °C 30.00in /  1015.8hPa East 3.0mph /  4.8km/h 5.0mph /  8km/h 67% 0.00in /  0mm
22:08 70.4 °F /  21.3 °C 58.5 °F /  14.7 °C 30.01in /  1016.1hPa East 5.0mph /  8km/h 8.0mph /  12.9km/h 66% 0.00in /  0mm
22:13 70.2 °F /  21.2 °C 58.7 °F /  14.8 °C 30.00in /  1015.8hPa ESE 5.0mph /  8km/h 6.0mph /  9.7km/h 67% 0.00in /  0mm
22:18 70.0 °F /  21.1 °C 58.5 °F /  14.7 °C 30.01in /  1016.1hPa ESE 3.0mph /  4.8km/h 6.0mph /  9.7km/h 67% 0.00in /  0mm
22:23 69.8 °F /  21 °C 58.8 °F /  14.9 °C 30.01in /  1016.1hPa ESE 6.0mph /  9.7km/h 6.0mph /  9.7km/h 68% 0.00in /  0mm
22:28 69.8 °F /  21 °C 58.8 °F /  14.9 °C 30.01in /  1016.1hPa East 6.0mph /  9.7km/h 6.0mph /  9.7km/h 68% 0.00in /  0mm
22:33 69.9 °F /  21.1 °C 58.5 °F /  14.7 °C 30.01in /  1016.1hPa ESE 6.0mph /  9.7km/h 8.0mph /  12.9km/h 67% 0.00in /  0mm
22:38 70.0 °F /  21.1 °C 58.5 °F /  14.7 °C 30.01in /  1016.1hPa ESE 4.0mph /  6.4km/h 8.0mph /  12.9km/h 67% 0.00in /  0mm
22:43 69.9 °F /  21.1 °C 58.5 °F /  14.7 °C 30.01in /  1016.1hPa SE 6.0mph /  9.7km/h 8.0mph /  12.9km/h 67% 0.00in /  0mm
22:48 69.8 °F /  21 °C 58.4 °F /  14.7 °C 30.01in /  1016.1hPa SE 8.0mph /  12.9km/h 9.0mph /  14.5km/h 67% 0.00in /  0mm
22:53 69.7 °F /  20.9 °C 58.7 °F /  14.8 °C 30.01in /  1016.1hPa SE 3.0mph /  4.8km/h 10.0mph /  16.1km/h 68% 0.00in /  0mm
22:58 69.7 °F /  20.9 °C 58.7 °F /  14.8 °C 30.01in /  1016.1hPa ESE 5.0mph /  8km/h 10.0mph /  16.1km/h 68% 0.00in /  0mm
23:03 69.7 °F /  20.9 °C 58.7 °F /  14.8 °C 30.01in /  1016.1hPa ESE 10.0mph /  16.1km/h 14.0mph /  22.5km/h 68% 0.00in /  0mm
23:08 69.7 °F /  20.9 °C 58.7 °F /  14.8 °C 30.01in /  1016.1hPa SE 6.0mph /  9.7km/h 8.0mph /  12.9km/h 68% 0.00in /  0mm
23:13 69.6 °F /  20.9 °C 58.6 °F /  14.8 °C 30.01in /  1016.1hPa East 7.0mph /  11.3km/h 11.0mph /  17.7km/h 68% 0.00in /  0mm
23:18 69.6 °F /  20.9 °C 58.6 °F /  14.8 °C 30.01in /  1016.1hPa ESE 7.0mph /  11.3km/h 11.0mph /  17.7km/h 68% 0.00in /  0mm
23:23 69.7 °F /  20.9 °C 58.7 °F /  14.8 °C 30.01in /  1016.1hPa ESE 8.0mph /  12.9km/h 11.0mph /  17.7km/h 68% 0.00in /  0mm
23:28 69.8 °F /  21 °C 58.8 °F /  14.9 °C 30.01in /  1016.1hPa SE 8.0mph /  12.9km/h 11.0mph /  17.7km/h 68% 0.00in /  0mm
23:33 70.0 °F /  21.1 °C 59.0 °F /  15 °C 30.02in /  1016.5hPa ESE 7.0mph /  11.3km/h 11.0mph /  17.7km/h 68% 0.00in /  0mm
23:38 70.1 °F /  21.2 °C 59.1 °F /  15.1 °C 30.02in /  1016.5hPa ESE 8.0mph /  12.9km/h 12.0mph /  19.3km/h 68% 0.00in /  0mm
23:43 70.2 °F /  21.2 °C 58.7 °F /  14.8 °C 30.02in /  1016.5hPa East 7.0mph /  11.3km/h 13.0mph /  20.9km/h 67% 0.00in /  0mm
23:48 70.1 °F /  21.2 °C 59.1 °F /  15.1 °C 30.02in /  1016.5hPa ESE 11.0mph /  17.7km/h 11.0mph /  17.7km/h 68% 0.00in /  0mm
23:53 70.2 °F /  21.2 °C 58.7 °F /  14.8 °C 30.02in /  1016.5hPa ESE 9.0mph /  14.5km/h 13.0mph /  20.9km/h 67% 0.00in /  0mm
23:58 70.3 °F /  21.3 °C 58.8 °F /  14.9 °C 30.03in /  1016.8hPa SE 7.0mph /  11.3km/h 14.0mph /  22.5km/h 67% 0.00in /  0mm
Compliments of Weather Underground